Time;durP1;ratioP1;P1;durP2;ratioP2;P2;SDS_P1;SDS_P2;PMS_P1;PMS_P2;Temp;Humidity;BMP_temperature;BMP_pressure;BME280_temperature;BME280_humidity;BME280_pressure;Samples;Min_cycle;Max_cycle;Signal;HPM_P1;HPM_P2
2022/02/03 00:04:30;;;;;;;1999.90;999.90;;;10.40;74.70;;;;;;4960854;28;20043;-87
2022/02/03 00:07:02;;;;;;;1999.90;999.90;;;10.50;74.70;;;;;;4956114;28;20040;-87
2022/02/03 00:23:49;;;;;;;1999.90;999.90;;;10.40;74.60;;;;;;4942444;29;20044;-87
2022/02/03 00:26:01;;;;;;;1999.90;999.90;;;10.30;74.60;;;;;;4952167;29;20070;-86
2022/02/03 00:28:30;;;;;;;1999.90;999.90;;;10.30;74.70;;;;;;4928683;29;20487;-86
2022/02/03 00:31:07;;;;;;;1999.90;999.90;;;10.30;74.70;;;;;;4931304;28;20387;-86
2022/02/03 00:33:59;;;;;;;1999.90;999.90;;;10.30;74.70;;;;;;4942041;29;20027;-86
2022/02/03 00:36:39;;;;;;;1999.90;999.90;;;10.30;74.70;;;;;;4929026;29;20410;-87
2022/02/03 00:52:27;;;;;;;1999.90;999.90;;;10.20;74.70;;;;;;4942201;29;20511;-87
2022/02/03 00:54:53;;;;;;;1999.90;999.90;;;10.20;74.70;;;;;;4943852;29;20027;-87
2022/02/03 00:57:27;;;;;;;1999.90;999.90;;;10.20;74.70;;;;;;4954396;29;20043;-87
2022/02/03 00:59:57;;;;;;;1999.90;999.90;;;10.20;74.70;;;;;;4938624;29;20047;-87
2022/02/03 01:02:23;;;;;;;1999.90;999.90;;;10.20;74.70;;;;;;4951690;28;20047;-87
2022/02/03 01:04:49;;;;;;;1505.47;755.20;;;10.20;74.80;;;;;;4959386;28;20478;-87
2022/02/03 01:07:17;;;;;;;1999.90;999.90;;;10.20;74.70;;;;;;4955247;29;20371;-86
2022/02/03 01:09:53;;;;;;;1999.90;999.90;;;10.20;74.80;;;;;;4952515;29;20062;-86
2022/02/03 01:12:48;;;;;;;1999.90;999.90;;;10.20;74.70;;;;;;4955939;28;20026;-87
2022/02/03 01:15:23;;;;;;;1999.90;999.90;;;10.20;74.70;;;;;;4952542;28;20035;-87
2022/02/03 01:18:05;;;;;;;1999.90;999.90;;;10.20;74.70;;;;;;4948259;29;20391;-87
2022/02/03 01:34:38;;;;;;;22.08;21.08;;;10.10;74.50;;;;;;4929819;29;20044;-86
2022/02/03 01:45:24;;;;;;;1999.90;999.90;;;10.10;74.60;;;;;;4855166;29;20046;-86
2022/02/03 01:47:58;;;;;;;1999.90;999.90;;;10.00;74.60;;;;;;4857380;29;20044;-86
2022/02/03 01:52:51;;;;;;;1999.90;999.90;;;10.00;74.60;;;;;;4855410;29;20428;-86
2022/02/03 01:55:24;;;;;;;1999.90;999.90;;;10.00;74.60;;;;;;4854296;29;20049;-86
2022/02/03 01:58:02;;;;;;;1999.90;999.90;;;9.90;74.60;;;;;;4854762;29;20042;-87
2022/02/03 02:00:31;;;;;;;1999.90;999.90;;;9.90;74.60;;;;;;4857298;29;20053;-86
2022/02/03 02:03:09;;;;;;;1999.90;999.90;;;9.90;75.50;;;;;;4857354;29;20424;-87
2022/02/03 02:05:38;;;;;;;1999.90;999.90;;;9.90;74.70;;;;;;4854647;29;20433;-86
2022/02/03 02:08:19;;;;;;;1999.90;999.90;;;9.90;74.70;;;;;;4852641;29;20045;-85
2022/02/03 02:39:13;;;;;;;21.00;19.92;;;9.50;74.80;;;;;;4950970;28;20075;-87
2022/02/03 02:44:19;;;;;;;20.60;19.60;;;9.50;74.90;;;;;;4941263;28;20036;-86
2022/02/03 02:46:51;;;;;;;20.08;19.13;;;9.50;74.80;;;;;;4931805;29;20504;-87
2022/02/03 02:49:45;;;;;;;20.20;19.30;;;9.50;74.90;;;;;;4925987;29;20040;-87
2022/02/03 02:52:18;;;;;;;20.13;19.13;;;9.50;74.80;;;;;;4944371;29;20050;-87
2022/02/03 02:58:09;;;;;;;20.02;19.13;;;9.50;74.80;;;;;;4943549;29;20502;-87
2022/02/03 03:30:51;;;;;;;20.33;19.40;;;9.30;74.80;;;;;;4951012;28;20499;-87
2022/02/03 03:33:33;;;;;;;19.90;19.00;;;9.30;74.90;;;;;;4933744;29;20032;-87
2022/02/03 03:36:06;;;;;;;19.50;18.60;;;9.20;74.80;;;;;;4950339;28;20023;-87
2022/02/03 03:38:35;;;;;;;19.08;18.17;;;9.20;74.90;;;;;;4952057;29;20031;-87
2022/02/03 03:41:02;;;;;;;19.95;18.95;;;9.20;74.80;;;;;;4960535;28;20027;-86
2022/02/03 03:43:34;;;;;;;20.38;19.48;;;9.20;75.00;;;;;;4940923;29;20028;-87
2022/02/03 03:46:10;;;;;;;19.73;18.83;;;9.10;74.90;;;;;;4956397;28;20039;-87
2022/02/03 03:48:46;;;;;;;19.85;18.95;;;9.10;74.90;;;;;;4940467;29;20397;-86
2022/02/03 03:51:12;;;;;;;19.52;18.63;;;9.10;75.00;;;;;;4938715;29;20047;-86
2022/02/03 03:53:48;;;;;;;18.88;17.98;;;9.00;75.00;;;;;;4951608;29;20375;-87
2022/02/03 03:56:34;;;;;;;19.48;18.58;;;8.90;75.10;;;;;;4951257;28;20482;-86
2022/02/03 04:33:51;;;;;;;20.40;19.40;;;8.80;75.30;;;;;;4900853;29;20029;-86
2022/02/03 04:42:22;;;;;;;19.58;18.67;;;8.80;75.30;;;;;;4929530;29;20051;-87
2022/02/03 04:45:23;;;;;;;19.98;19.08;;;8.80;75.20;;;;;;4934552;29;20036;-87
2022/02/03 04:51:46;;;;;;;20.73;19.73;;;8.80;75.10;;;;;;4934467;29;20062;-87
2022/02/03 05:01:28;;;;;;;19.55;18.65;;;8.70;75.30;;;;;;4920504;29;20438;-87
2022/02/03 05:04:15;;;;;;;20.60;19.58;;;8.60;75.30;;;;;;4918240;29;20545;-88
2022/02/03 05:06:58;;;;;;;20.65;19.45;;;8.60;75.40;;;;;;4910325;29;20136;-86
2022/02/03 05:12:51;;;;;;;20.80;19.80;;;8.50;75.50;;;;;;4948254;28;20039;-89
2022/02/03 06:01:48;;;;;;;19.27;18.35;;;8.30;75.70;;;;;;4798885;29;20050;-84
2022/02/03 06:04:17;;;;;;;19.90;18.90;;;8.30;75.70;;;;;;4801735;29;20038;-84
2022/02/03 06:14:28;;;;;;;18.85;17.95;;;8.40;75.70;;;;;;4842956;29;20042;-84
2022/02/03 06:17:27;;;;;;;19.58;18.67;;;8.40;75.60;;;;;;4873281;29;20076;-84
2022/02/03 06:22:57;;;;;;;19.55;18.65;;;8.40;75.70;;;;;;4872130;29;20455;-87
2022/02/03 06:28:09;;;;;;;20.25;19.08;;;8.40;75.70;;;;;;4877070;29;20064;-86
2022/02/03 06:30:35;;;;;;;19.03;18.13;;;8.40;75.70;;;;;;4874257;29;20037;-86
2022/02/03 06:33:01;;;;;;;20.48;19.48;;;8.50;75.70;;;;;;4902753;29;20047;-86
2022/02/03 06:35:27;;;;;;;19.90;19.00;;;8.50;75.70;;;;;;4947272;29;20036;-86
2022/02/03 06:37:53;;;;;;;20.35;19.35;;;8.50;75.70;;;;;;4925593;29;20047;-85
2022/02/03 06:40:19;;;;;;;19.92;18.98;;;8.40;75.70;;;;;;4948408;29;20036;-85
2022/02/03 06:42:46;;;;;;;20.55;19.52;;;8.40;75.70;;;;;;4966855;28;20034;-86
2022/02/03 06:47:51;;;;;;;19.88;18.98;;;8.40;75.70;;;;;;4958942;28;20027;-86
2022/02/03 06:53:02;;;;;;;20.60;19.43;;;8.40;75.80;;;;;;4952418;28;20051;-86
2022/02/03 06:58:02;;;;;;;19.70;18.80;;;8.40;75.80;;;;;;4946302;29;20027;-85
2022/02/03 07:00:34;;;;;;;20.08;19.17;;;8.40;75.80;;;;;;4966792;28;20043;-85
2022/02/03 07:03:01;;;;;;;;;;;8.40;75.90;;;;;;4967050;28;20035;-85
2022/02/03 07:05:27;;;;;;;19.35;18.45;;;8.40;75.90;;;;;;4941463;29;19911;-85
2022/02/03 07:07:54;;;;;;;20.77;19.77;;;8.40;75.90;;;;;;4957008;28;20407;-86
2022/02/03 07:10:20;;;;;;;19.95;18.95;;;8.40;75.90;;;;;;4957308;28;20043;-86
2022/02/03 07:12:47;;;;;;;19.02;18.13;;;8.40;75.90;;;;;;4942999;29;20035;-86
2022/02/03 07:15:13;;;;;;;20.13;19.20;;;8.40;76.00;;;;;;4951687;28;20100;-87
2022/02/03 07:17:39;;;;;;;21.70;20.50;;;8.40;75.90;;;;;;4953373;29;20032;-86
2022/02/03 07:20:07;;;;;;;20.35;19.42;;;8.40;75.90;;;;;;4940772;29;20411;-86
2022/02/03 07:22:34;;;;;;;20.60;19.35;;;8.40;76.00;;;;;;4956980;28;20411;-86
2022/02/03 07:25:00;;;;;;;20.30;19.40;;;8.30;76.00;;;;;;4942349;29;20591;-84
2022/02/03 07:27:26;;;;;;;20.58;19.50;;;8.30;76.00;;;;;;4935128;29;20051;-88
2022/02/03 07:29:53;;;;;;;18.75;17.85;;;8.30;76.00;;;;;;4949951;29;20504;-85
2022/02/03 07:32:21;;;;;;;19.77;18.88;;;8.30;76.00;;;;;;4969608;28;20542;-84
2022/02/03 07:34:51;;;;;;;21.25;20.20;;;8.30;76.00;;;;;;4954118;28;20466;-85
2022/02/03 07:37:17;;;;;;;20.47;19.47;;;8.30;76.00;;;;;;4957442;28;20403;-84
2022/02/03 07:39:44;;;;;;;19.50;18.60;;;8.30;76.10;;;;;;4937033;29;20385;-84
2022/02/03 07:42:11;;;;;;;20.00;19.00;;;8.30;76.20;;;;;;4968905;28;20047;-86
2022/02/03 07:44:38;;;;;;;18.30;17.50;;;8.30;76.20;;;;;;4955885;29;20040;-85
2022/02/03 07:47:04;;;;;;;19.58;18.65;;;8.30;76.30;;;;;;4954811;28;20043;-84
2022/02/03 07:49:32;;;;;;;20.97;19.77;;;8.30;76.20;;;;;;4940697;29;20379;-85
2022/02/03 07:51:58;;;;;;;19.27;18.27;;;8.30;76.20;;;;;;4969580;28;20043;-83
2022/02/03 07:54:24;;;;;;;18.80;17.90;;;8.30;76.20;;;;;;4954767;29;20031;-83
2022/02/03 07:56:50;;;;;;;19.60;18.60;;;8.30;76.20;;;;;;4955534;29;20050;-84
2022/02/03 07:59:16;;;;;;;20.08;19.17;;;8.30;76.20;;;;;;4955357;29;20031;-84
2022/02/03 08:01:42;;;;;;;20.05;18.80;;;8.30;76.20;;;;;;4951402;28;20681;-84
2022/02/03 08:04:09;;;;;;;19.77;18.77;;;8.20;76.20;;;;;;4953664;28;20054;-83
2022/02/03 08:06:40;;;;;;;19.63;18.63;;;8.20;76.30;;;;;;4953232;29;20058;-82
2022/02/03 08:09:11;;;;;;;;;;;8.20;76.30;;;;;;4964121;28;20422;-84
2022/02/03 08:11:43;;;;;;;19.10;18.08;;;8.20;76.30;;;;;;4954419;29;19918;-82
2022/02/03 08:14:20;;;;;;;18.88;17.98;;;8.30;76.20;;;;;;4951771;28;20042;-82
2022/02/03 08:16:52;;;;;;;19.87;18.87;;;8.20;76.20;;;;;;4953303;28;20502;-83
2022/02/03 08:19:35;;;;;;;20.10;19.20;;;8.20;76.20;;;;;;4952931;29;20363;-83
2022/02/03 08:22:25;;;;;;;19.83;18.88;;;8.20;76.20;;;;;;4950797;29;20043;-83
2022/02/03 08:24:55;;;;;;;20.88;19.60;;;8.30;76.20;;;;;;4951129;29;20055;-82
2022/02/03 08:32:25;;;;;;;20.40;19.40;;;8.30;76.10;;;;;;4954593;28;20087;-82
2022/02/03 08:37:21;;;;;;;21.13;20.02;;;8.30;76.10;;;;;;4957830;28;20042;-84
2022/02/03 08:39:53;;;;;;;20.50;19.33;;;8.40;76.10;;;;;;4952625;28;20066;-83
2022/02/03 08:42:20;;;;;;;20.17;19.13;;;8.40;76.10;;;;;;4952024;28;20050;-82
2022/02/03 08:44:46;;;;;;;19.30;18.30;;;8.30;76.10;;;;;;4955279;29;20034;-83
2022/02/03 08:47:12;;;;;;;18.92;18.02;;;8.20;76.20;;;;;;4952513;29;20031;-82
2022/02/03 08:49:44;;;;;;;19.30;18.30;;;8.20;76.30;;;;;;4951386;29;20035;-83
2022/02/03 08:52:17;;;;;;;19.25;18.35;;;8.20;76.30;;;;;;4952807;29;20039;-82
2022/02/03 09:39:00;;;;;;;19.98;18.90;;;8.30;76.60;;;;;;4896173;29;20047;-83
2022/02/03 10:00:57;;;;;;;18.98;17.70;;;8.40;76.40;;;;;;4875567;29;20053;-84
2022/02/03 10:06:11;;;;;;;17.73;16.92;;;8.40;76.30;;;;;;4861678;29;20049;-83
2022/02/03 10:08:37;;;;;;;18.35;17.45;;;8.50;76.40;;;;;;4890187;29;20041;-85
2022/02/03 10:11:16;;;;;;;19.23;18.30;;;8.50;76.30;;;;;;4877419;29;20118;-84
2022/02/03 10:13:56;;;;;;;18.63;17.73;;;8.40;76.30;;;;;;4901024;29;20064;-84
2022/02/03 10:16:30;;;;;;;19.08;18.15;;;8.40;76.50;;;;;;4921383;29;20043;-85
2022/02/03 10:19:07;;;;;;;18.05;17.25;;;8.40;76.60;;;;;;4925324;29;20043;-84
2022/02/03 10:21:33;;;;;;;17.98;17.17;;;8.30;76.70;;;;;;4926159;29;20567;-83
2022/02/03 10:24:01;;;;;;;18.02;17.23;;;8.40;76.80;;;;;;4935451;29;20044;-84
2022/02/03 10:26:44;;;;;;;18.80;17.90;;;8.40;76.60;;;;;;4931162;29;20043;-85
2022/02/03 10:29:25;;;;;;;18.70;17.60;;;8.50;76.60;;;;;;4930905;29;20051;-86
2022/02/03 10:31:51;;;;;;;18.70;17.80;;;8.50;76.60;;;;;;4924860;29;20471;-84
2022/02/03 10:34:26;;;;;;;18.33;17.42;;;8.60;76.50;;;;;;4934592;29;20109;-85
2022/02/03 10:47:35;;;;;;;19.67;18.67;;;8.70;76.40;;;;;;4951761;28;20390;-85
2022/02/03 11:03:33;;;;;;;19.90;18.90;;;8.70;76.30;;;;;;4950186;28;20034;-84
2022/02/03 11:09:22;;;;;;;19.20;18.20;;;8.70;76.50;;;;;;4880662;29;20045;-86
2022/02/03 11:11:54;;;;;;;18.80;17.90;;;8.70;76.50;;;;;;4892962;29;20071;-85
2022/02/03 11:14:21;;;;;;;19.38;18.38;;;8.70;77.20;;;;;;4892968;29;20055;-84
2022/02/03 11:16:47;;;;;;;20.00;19.00;;;8.60;76.50;;;;;;4877741;29;20074;-84
2022/02/03 11:19:16;;;;;;;19.58;18.42;;;8.60;76.60;;;;;;4891579;29;20088;-86
2022/02/03 11:21:46;;;;;;;19.60;18.50;;;8.60;76.70;;;;;;4887237;29;20041;-84
2022/02/03 11:24:21;;;;;;;18.35;17.45;;;8.60;76.70;;;;;;4878793;29;20037;-86
2022/02/03 11:27:09;;;;;;;18.13;17.27;;;8.60;76.70;;;;;;4874863;29;20492;-86
2022/02/03 11:30:14;;;;;;;18.98;17.77;;;8.60;76.70;;;;;;4893003;29;20044;-87
2022/02/03 11:32:52;;;;;;;20.50;19.25;;;8.70;76.60;;;;;;4895655;29;20439;-85
2022/02/03 11:43:55;;;;;;;18.73;17.85;;;8.80;76.40;;;;;;4893184;29;20157;-84
2022/02/03 11:49:42;;;;;;;19.35;18.35;;;8.90;76.40;;;;;;4890706;29;20044;-84
2022/02/03 11:53:16;;;;;;;18.20;17.40;;;9.00;76.40;;;;;;4880510;29;20056;-85
2022/02/03 12:17:30;;;;;;;19.33;18.40;;;9.00;76.40;;;;;;4818017;29;20035;-84
2022/02/03 12:20:09;;;;;;;19.35;18.35;;;9.00;76.40;;;;;;4807992;29;20050;-83
2022/02/03 12:25:48;;;;;;;19.13;18.02;;;9.10;76.40;;;;;;4814063;29;20045;-84
2022/02/03 12:38:50;;;;;;;19.38;18.48;;;9.20;76.30;;;;;;4836593;29;20053;-83
2022/02/03 12:41:23;;;;;;;19.55;18.65;;;9.30;76.40;;;;;;4857030;29;20504;-83
2022/02/03 12:44:00;;;;;;;21.73;20.67;;;9.20;76.30;;;;;;4857296;29;20061;-84
2022/02/03 12:46:27;;;;;;;21.25;20.25;;;9.20;76.30;;;;;;4856836;29;20045;-85
2022/02/03 12:48:55;;;;;;;20.55;19.50;;;9.20;76.40;;;;;;4858127;29;20042;-85
2022/02/03 12:51:22;;;;;;;20.63;19.55;;;9.20;76.50;;;;;;4869529;29;20044;-86
2022/02/03 12:53:48;;;;;;;21.58;20.52;;;9.20;76.50;;;;;;4911064;29;20575;-88
2022/02/03 12:56:14;;;;;;;20.60;19.60;;;9.30;76.60;;;;;;4911465;29;20044;-88
2022/02/03 12:58:47;;;;;;;20.15;19.23;;;9.30;76.50;;;;;;4913038;29;20040;-87
2022/02/03 13:01:16;;;;;;;19.40;18.50;;;9.40;76.50;;;;;;4913754;29;20214;-89
2022/02/03 13:03:47;;;;;;;20.02;19.02;;;9.40;76.40;;;;;;4914002;29;20040;-88
2022/02/03 13:06:19;;;;;;;20.10;19.10;;;9.40;76.40;;;;;;4899154;29;20417;-88
2022/02/03 13:08:48;;;;;;;21.02;19.98;;;9.40;76.40;;;;;;4899411;29;20041;-88
2022/02/03 13:11:23;;;;;;;21.20;20.02;;;9.40;76.40;;;;;;4946205;29;20058;-88
2022/02/03 13:16:35;;;;;;;20.25;19.05;;;9.40;76.60;;;;;;4952925;28;20043;-88
2022/02/03 13:25:03;;;;;;;20.42;19.42;;;9.40;76.60;;;;;;4941116;29;20501;-88
2022/02/03 13:26:58;;;;;;;20.35;19.25;;;9.40;76.60;;;;;;4940529;29;20027;-89
2022/02/03 13:30:24;;;;;;;20.10;19.08;;;9.40;76.50;;;;;;4968426;28;20042;-88
2022/02/03 13:32:24;;;;;;;20.73;19.55;;;9.40;76.50;;;;;;4933652;29;20046;-88
2022/02/03 13:35:01;;;;;;;19.52;18.63;;;9.40;76.50;;;;;;4951226;29;20035;-88
2022/02/03 13:37:38;;;;;;;19.77;18.88;;;9.50;76.50;;;;;;4952281;28;20039;-88
2022/02/03 13:40:10;;;;;;;19.70;18.70;;;9.50;76.50;;;;;;4967856;28;20039;-88
2022/02/03 13:42:38;;;;;;;20.52;19.52;;;9.50;76.50;;;;;;4948898;29;20043;-87
2022/02/03 13:45:08;;;;;;;19.58;18.67;;;9.50;76.50;;;;;;4935566;28;20034;-88
2022/02/03 13:47:37;;;;;;;20.13;19.15;;;9.50;76.50;;;;;;4934006;29;20039;-87
2022/02/03 13:50:31;;;;;;;19.27;18.38;;;9.50;76.50;;;;;;4928002;29;20035;-84
2022/02/03 13:53:05;;;;;;;19.42;18.52;;;9.40;76.60;;;;;;4947182;29;20398;-85
2022/02/03 14:13:30;;;;;;;21.00;19.80;;;9.50;76.50;;;;;;4937517;29;20046;-85
2022/02/03 14:28:20;;;;;;;20.50;19.50;;;9.50;76.80;;;;;;4958422;28;20054;-86
2022/02/03 14:30:51;;;;;;;20.88;19.75;;;9.50;76.80;;;;;;4952468;28;20410;-85
2022/02/03 14:33:24;;;;;;;19.92;19.02;;;9.50;76.80;;;;;;4949362;29;20406;-86
2022/02/03 14:35:50;;;;;;;20.98;19.88;;;9.60;76.80;;;;;;4943775;28;20046;-86
2022/02/03 14:38:26;;;;;;;20.50;19.50;;;9.50;76.80;;;;;;4947831;29;20044;-85
2022/02/03 14:41:05;;;;;;;20.88;19.77;;;9.60;76.80;;;;;;4952276;28;20050;-84
2022/02/03 14:43:31;;;;;;;19.27;18.38;;;9.60;76.80;;;;;;4940497;28;20491;-83
2022/02/03 14:46:00;;;;;;;21.23;19.58;;;9.60;76.80;;;;;;4950668;28;20039;-84
2022/02/03 14:48:26;;;;;;;20.30;19.30;;;9.60;76.70;;;;;;4950826;29;20039;-84
2022/02/03 14:50:55;;;;;;;22.65;20.85;;;9.70;77.00;;;;;;4948908;29;20047;-84
2022/02/03 14:53:31;;;;;;;19.25;18.33;;;9.70;76.90;;;;;;4953053;29;20050;-84
2022/02/03 14:58:41;;;;;;;19.70;18.70;;;9.70;76.80;;;;;;4945756;28;20421;-82
2022/02/03 15:01:11;;;;;;;19.58;18.63;;;9.80;76.80;;;;;;4962082;28;20048;-82
2022/02/03 15:03:37;;;;;;;18.17;17.38;;;9.70;76.70;;;;;;4932470;29;20528;-86
2022/02/03 15:06:08;;;;;;;18.30;17.50;;;9.80;76.70;;;;;;4965065;28;20020;-84
2022/02/03 15:11:08;;;;;;;19.67;18.77;;;9.80;76.70;;;;;;4972712;28;20039;-86
2022/02/03 15:13:48;;;;;;;19.33;18.40;;;9.90;76.70;;;;;;4948827;29;20063;-84
2022/02/03 15:16:15;;;;;;;20.30;19.35;;;9.90;76.70;;;;;;4948536;28;20051;-85
2022/02/03 15:18:41;;;;;;;20.95;19.85;;;9.90;76.60;;;;;;4948601;29;20035;-85
2022/02/03 15:21:07;;;;;;;20.20;19.30;;;9.90;76.70;;;;;;4945850;29;20030;-87
2022/02/03 15:23:33;;;;;;;21.15;20.02;;;9.90;76.80;;;;;;4947122;29;20036;-84
2022/02/03 15:26:00;;;;;;;20.40;19.40;;;9.90;76.70;;;;;;4947118;29;20040;-84
2022/02/03 15:28:26;;;;;;;20.33;19.35;;;9.90;76.70;;;;;;4944906;29;20505;-85
2022/02/03 15:30:55;;;;;;;20.25;19.15;;;9.90;76.70;;;;;;4933554;29;20390;-84
2022/02/03 15:33:25;;;;;;;21.00;19.85;;;9.90;76.70;;;;;;4951084;29;20521;-85
2022/02/03 15:35:55;;;;;;;20.75;19.75;;;9.90;76.70;;;;;;4936539;28;20495;-84
2022/02/03 15:38:22;;;;;;;21.23;20.13;;;9.90;77.50;;;;;;4952484;28;20058;-85
2022/02/03 15:40:50;;;;;;;20.13;18.92;;;9.90;76.70;;;;;;4947169;28;20036;-87
2022/02/03 15:43:29;;;;;;;20.38;19.33;;;10.00;76.80;;;;;;4926477;29;20027;-88
2022/02/03 15:45:59;;;;;;;19.98;18.80;;;9.90;76.80;;;;;;4939753;28;20043;-87
2022/02/03 16:15:37;;;;;;;20.35;19.35;;;9.90;76.90;;;;;;4948572;28;20058;-89
2022/02/03 16:17:28;;;;;;;20.15;18.92;;;9.90;77.00;;;;;;4948710;29;20031;-84
2022/02/03 16:20:02;;;;;;;19.42;18.52;;;9.90;76.90;;;;;;4960067;28;20039;-85
2022/02/03 16:52:48;;;;;;;18.98;18.08;;;9.90;77.10;;;;;;4914158;29;20059;-87
2022/02/03 16:55:18;;;;;;;18.90;18.00;;;9.80;77.10;;;;;;4898592;29;20048;-87
2022/02/03 16:57:46;;;;;;;19.25;18.35;;;9.90;77.20;;;;;;4914127;29;20526;-87
2022/02/03 17:00:15;;;;;;;18.88;17.98;;;9.90;77.20;;;;;;4913265;29;20043;-86
2022/02/03 17:02:41;;;;;;;19.27;18.27;;;9.90;77.30;;;;;;4913320;29;20032;-86
2022/02/03 17:05:08;;;;;;;19.90;18.88;;;9.90;77.30;;;;;;4900299;29;20059;-86
2022/02/03 17:07:34;;;;;;;20.05;18.95;;;9.90;77.30;;;;;;4951543;29;20038;-85
2022/02/03 17:10:00;;;;;;;21.00;19.48;;;9.80;77.20;;;;;;4942800;29;20474;-85
2022/02/03 17:12:26;;;;;;;20.00;19.00;;;9.90;77.30;;;;;;4949511;29;20039;-86
2022/02/03 17:14:52;;;;;;;20.45;19.20;;;9.80;77.30;;;;;;4953125;29;20405;-88
2022/02/03 17:17:20;;;;;;;20.20;19.20;;;9.90;77.30;;;;;;4952782;28;20528;-86
2022/02/03 17:19:47;;;;;;;20.40;19.15;;;9.90;77.30;;;;;;4948378;28;20043;-86
2022/02/03 17:22:14;;;;;;;19.08;18.17;;;9.90;77.30;;;;;;4961808;28;20031;-86
2022/02/03 17:24:48;;;;;;;20.23;19.13;;;9.90;77.40;;;;;;4953183;28;20387;-86
2022/02/03 17:27:29;;;;;;;20.15;19.05;;;9.90;77.30;;;;;;4950421;28;20050;-87
2022/02/03 18:31:12;;;;;;;19.15;17.90;;;10.00;77.70;;;;;;4965034;28;20066;-89
2022/02/03 18:36:46;;;;;;;20.42;19.33;;;10.00;78.60;;;;;;4931240;28;20042;-85
2022/02/03 18:52:45;;;;;;;18.73;17.83;;;10.10;77.80;;;;;;4871625;29;20508;-87
2022/02/03 18:55:29;;;;;;;18.73;17.83;;;10.10;77.80;;;;;;4859413;29;20072;-87
2022/02/03 18:58:05;;;;;;;20.73;19.63;;;10.10;77.80;;;;;;4870833;29;20087;-85
2022/02/03 19:58:55;;;;;;;19.58;18.58;;;10.00;78.30;;;;;;4973639;28;20058;-84
2022/02/03 20:11:34;;;;;;;19.85;18.85;;;9.90;78.20;;;;;;4918831;29;20140;-85
2022/02/03 20:14:00;;;;;;;19.23;18.25;;;9.90;79.00;;;;;;4898260;29;20052;-86
2022/02/03 20:16:26;;;;;;;21.33;19.27;;;9.90;78.20;;;;;;4897752;29;20048;-86
2022/02/03 20:18:52;;;;;;;19.17;18.17;;;10.00;78.30;;;;;;4916925;29;20067;-85
2022/02/03 20:21:19;;;;;;;19.40;18.30;;;10.00;78.40;;;;;;4902533;29;20090;-86
2022/02/03 20:23:46;;;;;;;19.00;18.08;;;10.00;78.40;;;;;;4916474;29;20388;-86
2022/02/03 20:26:14;;;;;;;18.20;17.40;;;10.00;78.50;;;;;;4918198;29;20055;-87
2022/02/03 20:28:40;;;;;;;19.00;18.00;;;10.00;78.50;;;;;;4915361;29;20152;-86
2022/02/03 20:31:06;;;;;;;19.30;18.23;;;10.00;78.50;;;;;;4898167;29;20039;-86
2022/02/03 20:33:32;;;;;;;18.83;17.92;;;10.00;78.50;;;;;;4916995;29;20038;-86
2022/02/03 20:35:58;;;;;;;19.70;18.65;;;10.00;78.50;;;;;;4902249;29;20040;-85
2022/02/03 20:38:25;;;;;;;19.02;18.13;;;10.00;78.50;;;;;;4915075;29;20028;-85
2022/02/03 20:40:51;;;;;;;19.08;18.17;;;10.00;78.60;;;;;;4912548;29;20047;-85
2022/02/03 20:43:17;;;;;;;18.73;17.83;;;10.00;78.60;;;;;;4944387;29;20047;-87
2022/02/03 20:45:43;;;;;;;18.58;17.67;;;10.00;78.70;;;;;;4964013;28;20481;-85
2022/02/03 20:48:10;;;;;;;18.95;17.98;;;10.00;78.60;;;;;;4939879;29;20031;-85
2022/02/03 20:50:36;;;;;;;17.98;17.17;;;10.10;78.70;;;;;;4955425;28;20055;-86
2022/02/03 20:53:06;;;;;;;19.42;18.45;;;10.10;78.70;;;;;;4955010;29;20066;-86
2022/02/03 20:55:32;;;;;;;19.40;18.33;;;10.10;78.70;;;;;;4955434;29;20054;-86
2022/02/03 20:57:59;;;;;;;17.88;17.08;;;10.10;78.80;;;;;;4969173;28;20039;-86
2022/02/03 21:00:27;;;;;;;18.77;17.88;;;10.10;78.80;;;;;;4954360;28;20112;-86
2022/02/03 21:03:14;;;;;;;19.00;17.95;;;10.10;78.80;;;;;;4940112;29;20032;-87
2022/02/03 21:05:40;;;;;;;19.52;18.55;;;10.10;78.80;;;;;;4954092;28;20051;-87
2022/02/03 21:08:07;;;;;;;18.33;17.45;;;10.10;78.80;;;;;;4953774;29;20386;-84
2022/02/03 21:10:33;;;;;;;18.70;17.70;;;10.10;79.60;;;;;;4955015;29;20051;-87
2022/02/03 21:12:59;;;;;;;19.80;18.30;;;10.10;78.80;;;;;;4952999;28;20035;-87
2022/02/03 21:15:34;;;;;;;19.33;18.33;;;10.10;78.90;;;;;;4944146;28;20466;-86
2022/02/03 21:18:04;;;;;;;17.95;17.15;;;10.10;78.90;;;;;;4953034;28;20039;-86
2022/02/03 21:20:30;;;;;;;17.85;17.05;;;10.10;78.90;;;;;;4955354;29;20023;-87
2022/02/03 21:22:56;;;;;;;18.58;17.67;;;10.10;78.90;;;;;;4955216;29;20031;-86
2022/02/03 21:25:30;;;;;;;19.02;18.13;;;10.20;79.00;;;;;;4954901;28;20039;-87
2022/02/03 21:28:02;;;;;;;19.08;18.17;;;10.10;78.90;;;;;;4966729;28;20047;-86
2022/02/03 21:30:28;;;;;;;18.58;17.67;;;10.10;79.00;;;;;;4942907;28;20039;-86
2022/02/03 21:32:54;;;;;;;18.90;17.98;;;10.10;79.00;;;;;;4952834;29;20394;-86
2022/02/03 21:35:22;;;;;;;18.80;17.90;;;10.10;79.10;;;;;;4949527;29;20050;-86
2022/02/03 21:37:49;;;;;;;17.95;17.15;;;10.10;79.10;;;;;;4955408;28;20039;-85
2022/02/03 21:40:15;;;;;;;18.80;17.90;;;10.20;79.10;;;;;;4942567;29;20054;-86
2022/02/03 21:42:41;;;;;;;18.40;17.50;;;10.10;79.10;;;;;;4958103;28;20039;-87
2022/02/03 21:45:08;;;;;;;18.83;17.92;;;10.10;79.10;;;;;;4960991;28;20035;-86
2022/02/03 21:47:34;;;;;;;18.63;17.73;;;10.10;79.20;;;;;;4954035;29;20470;-88
2022/02/03 21:50:01;;;;;;;19.65;18.58;;;10.10;79.30;;;;;;4952219;28;20032;-87
2022/02/03 21:52:35;;;;;;;18.23;17.30;;;10.10;79.40;;;;;;4962747;28;20052;-88
2022/02/03 21:55:03;;;;;;;19.70;18.40;;;10.00;79.40;;;;;;4946202;29;20046;-84
2022/02/03 21:57:29;;;;;;;18.60;17.70;;;10.00;79.30;;;;;;4968866;28;20034;-86
2022/02/03 21:59:56;;;;;;;19.38;18.38;;;10.10;79.40;;;;;;4942619;29;20035;-87
2022/02/03 22:02:23;;;;;;;18.42;17.60;;;10.00;79.40;;;;;;4954334;28;20517;-85
2022/02/03 22:04:49;;;;;;;20.88;19.20;;;10.00;79.40;;;;;;4943131;29;20040;-87
2022/02/03 22:07:15;;;;;;;18.75;17.85;;;10.00;79.40;;;;;;4948566;29;20054;-86
2022/02/03 22:09:41;;;;;;;19.40;18.40;;;10.00;79.40;;;;;;4967820;28;20032;-86
2022/02/03 22:12:08;;;;;;;20.20;18.70;;;10.00;79.40;;;;;;4953226;28;20035;-87
2022/02/03 22:14:35;;;;;;;19.20;18.30;;;10.00;79.40;;;;;;4952264;29;20490;-86
2022/02/03 22:17:02;;;;;;;20.23;19.05;;;10.10;79.50;;;;;;4951336;28;20043;-86
2022/02/03 22:19:29;;;;;;;19.58;18.48;;;10.00;79.40;;;;;;4936252;29;20482;-86
2022/02/03 22:24:33;;;;;;;20.63;18.58;;;10.10;79.50;;;;;;4940970;29;20474;-86
2022/02/03 22:42:50;;;;;;;18.92;17.88;;;10.10;79.70;;;;;;4957286;28;20031;-85
2022/02/03 22:45:21;;;;;;;18.90;17.88;;;10.10;79.70;;;;;;4939863;28;20031;-86
2022/02/03 22:50:16;;;;;;;18.40;17.30;;;10.10;79.70;;;;;;4953699;28;20046;-86
2022/02/03 22:52:42;;;;;;;19.52;18.13;;;10.10;79.70;;;;;;4952895;29;20055;-86
2022/02/03 22:55:10;;;;;;;18.73;17.83;;;10.10;79.70;;;;;;4962872;28;20702;-85
2022/02/03 22:57:36;;;;;;;19.25;18.20;;;10.10;79.70;;;;;;4966676;28;20031;-86
2022/02/03 23:02:34;;;;;;;18.80;17.48;;;10.10;79.70;;;;;;4936057;28;20031;-86
2022/02/03 23:05:00;;;;;;;19.27;18.20;;;10.10;79.70;;;;;;4940505;29;20050;-86
2022/02/03 23:10:47;;;;;;;20.33;18.67;;;10.10;79.70;;;;;;4962984;28;20034;-86
2022/02/03 23:13:25;;;;;;;18.27;17.38;;;10.10;79.80;;;;;;4952315;28;20044;-86
2022/02/03 23:16:03;;;;;;;18.33;17.45;;;10.10;79.70;;;;;;4947207;28;20047;-86
2022/02/03 23:18:50;;;;;;;19.00;18.00;;;10.10;79.70;;;;;;4953673;28;20043;-86
2022/02/03 23:23:54;;;;;;;18.73;17.73;;;10.10;79.70;;;;;;4955571;28;20034;-86
2022/02/03 23:26:23;;;;;;;18.25;17.35;;;10.10;79.70;;;;;;4952170;29;20394;-86
2022/02/03 23:28:51;;;;;;;18.52;17.63;;;10.10;79.80;;;;;;4957878;28;20062;-86
2022/02/03 23:31:18;;;;;;;18.73;17.60;;;10.10;79.80;;;;;;4947237;28;20414;-86
2022/02/03 23:33:44;;;;;;;19.13;18.13;;;10.10;79.90;;;;;;4925258;29;20039;-86
2022/02/03 23:36:10;;;;;;;19.15;18.17;;;10.10;79.90;;;;;;4953587;28;20494;-86
2022/02/03 23:38:48;;;;;;;19.35;18.35;;;10.10;79.90;;;;;;4945419;29;20035;-86
2022/02/03 23:44:04;;;;;;;18.67;17.77;;;10.10;79.90;;;;;;4952683;29;20391;-86
2022/02/03 23:47:01;;;;;;;18.85;17.85;;;10.10;79.90;;;;;;4949888;28;20031;-86
2022/02/03 23:50:06;;;;;;;17.90;17.10;;;10.10;79.90;;;;;;4945629;29;20028;-85
